createdAt,value
2023-05-01T00:00:37.808Z,6.70
2023-05-01T00:03:04.684Z,6.20
2023-05-01T00:05:31.679Z,6.50
2023-05-01T00:07:58.371Z,7.00
2023-05-01T00:10:25.132Z,6.50
2023-05-01T00:12:51.810Z,6.30
2023-05-01T00:15:18.654Z,6.70
2023-05-01T00:17:45.434Z,6.77
2023-05-01T00:20:12.505Z,6.53
2023-05-01T00:22:39.244Z,7.23
2023-05-01T00:25:06.463Z,6.77
2023-05-01T00:27:33.078Z,6.67
2023-05-01T00:30:00.156Z,5.87
2023-05-01T00:32:26.827Z,6.80
2023-05-01T00:34:56.200Z,6.03
2023-05-01T00:37:23.038Z,6.10
2023-05-01T00:39:49.782Z,6.60
2023-05-01T00:42:16.479Z,7.67
2023-05-01T00:44:43.096Z,6.47
2023-05-01T00:47:09.788Z,6.93
2023-05-01T00:49:36.574Z,6.73
2023-05-01T00:52:03.401Z,6.37
2023-05-01T00:54:30.657Z,6.57
2023-05-01T00:56:58.200Z,6.00
2023-05-01T00:59:25.441Z,5.80
2023-05-01T01:04:19.162Z,5.77
2023-05-01T01:06:56.044Z,5.47
2023-05-01T01:10:00.300Z,5.97
2023-05-01T01:12:28.402Z,6.80
2023-05-01T01:15:18.937Z,5.73
2023-05-01T01:18:14.139Z,5.00
2023-05-01T01:20:46.601Z,6.00
2023-05-01T01:23:50.826Z,6.10
2023-05-01T01:27:06.162Z,6.40
2023-05-01T01:29:59.285Z,5.93
2023-05-01T01:33:01.608Z,6.37
2023-05-01T01:35:29.798Z,6.13
2023-05-01T01:38:02.236Z,5.97
2023-05-01T01:40:43.806Z,6.07
2023-05-01T01:43:16.731Z,5.97
2023-05-01T01:45:50.242Z,5.30
2023-05-01T01:48:23.738Z,5.77
2023-05-01T01:50:54.025Z,6.90
2023-05-01T01:53:21.981Z,6.10
2023-05-01T01:55:50.167Z,5.73
2023-05-01T01:58:18.246Z,5.70
2023-05-01T02:00:46.008Z,5.73
2023-05-01T02:03:13.685Z,5.80
2023-05-01T02:05:41.763Z,6.00
2023-05-01T02:08:09.542Z,7.20
2023-05-01T02:10:37.223Z,6.83
2023-05-01T02:13:04.218Z,6.50
2023-05-01T02:15:32.662Z,6.77
2023-05-01T02:18:05.119Z,6.40
2023-05-01T02:20:32.699Z,6.30
2023-05-01T02:22:59.997Z,5.63
2023-05-01T02:25:30.505Z,6.00
2023-05-01T02:28:02.632Z,5.90
2023-05-01T02:30:29.446Z,6.67
2023-05-01T02:32:57.622Z,6.70
2023-05-01T02:35:24.543Z,6.30
2023-05-01T02:37:51.504Z,6.10
2023-05-01T02:40:18.687Z,7.00
2023-05-01T02:42:45.994Z,6.10
2023-05-01T02:45:24.828Z,5.40
2023-05-01T02:47:56.286Z,6.10
2023-05-01T02:50:24.363Z,5.97
2023-05-01T02:52:51.511Z,6.73
2023-05-01T02:55:18.423Z,6.87
2023-05-01T02:57:45.054Z,6.27
2023-05-01T03:00:14.067Z,5.30
2023-05-01T03:02:41.287Z,5.50
2023-05-01T03:05:08.635Z,5.70
2023-05-01T03:07:35.493Z,5.80
2023-05-01T03:10:04.003Z,4.80
2023-05-01T03:12:31.436Z,6.10
2023-05-01T03:14:58.181Z,6.70
2023-05-01T03:17:24.985Z,5.17
2023-05-01T03:19:51.828Z,4.87
2023-05-01T03:22:18.472Z,5.70
2023-05-01T03:24:47.362Z,5.87
2023-05-01T03:27:14.171Z,5.33
2023-05-01T03:29:40.932Z,5.20
2023-05-01T03:32:07.669Z,6.63
2023-05-01T03:34:34.893Z,5.87
2023-05-01T03:37:01.551Z,5.00
2023-05-01T03:39:28.225Z,5.77
2023-05-01T03:41:54.844Z,6.00
2023-05-01T03:44:21.489Z,5.47
2023-05-01T03:46:48.231Z,5.93
2023-05-01T03:49:14.909Z,6.10
2023-05-01T03:51:41.658Z,5.20
2023-05-01T03:54:08.324Z,4.93
2023-05-01T03:56:36.545Z,5.40
2023-05-01T03:59:03.233Z,5.30
2023-05-01T04:01:30.000Z,5.60
2023-05-01T04:03:56.725Z,6.53
2023-05-01T04:06:23.809Z,4.97
2023-05-01T04:08:50.482Z,5.33
2023-05-01T04:11:17.281Z,5.20
2023-05-01T04:13:43.933Z,5.30
2023-05-01T04:16:10.809Z,5.20
2023-05-01T04:18:37.491Z,5.20
2023-05-01T04:21:04.488Z,6.47
2023-05-01T04:23:31.245Z,6.23
2023-05-01T04:25:57.824Z,5.83
2023-05-01T04:28:24.497Z,6.13
2023-05-01T04:30:51.158Z,5.33
2023-05-01T04:33:17.835Z,5.83
2023-05-01T04:35:44.537Z,6.13
2023-05-01T04:38:11.669Z,6.53
2023-05-01T04:40:38.348Z,6.05
2023-05-01T04:43:05.285Z,6.10
2023-05-01T04:45:32.562Z,5.77
2023-05-01T04:47:59.284Z,6.03
2023-05-01T04:50:26.663Z,6.13
2023-05-01T04:52:53.308Z,6.37
2023-05-01T04:55:19.939Z,6.13
2023-05-01T04:57:46.793Z,6.43
2023-05-01T05:00:13.752Z,6.13
2023-05-01T05:02:40.586Z,6.37
2023-05-01T05:05:07.489Z,5.87
2023-05-01T05:07:34.118Z,5.80
2023-05-01T05:10:00.825Z,6.33
2023-05-01T05:12:27.447Z,6.13
2023-05-01T05:14:54.099Z,6.30
2023-05-01T05:17:20.787Z,6.87
2023-05-01T05:19:47.710Z,6.40
2023-05-01T05:22:14.394Z,6.23
2023-05-01T05:24:41.084Z,6.47
2023-05-01T05:27:08.368Z,7.37
2023-05-01T05:29:35.100Z,6.27
2023-05-01T05:32:02.126Z,5.40
2023-05-01T05:34:28.952Z,5.43
2023-05-01T05:36:55.586Z,6.07
2023-05-01T05:39:23.723Z,6.00
2023-05-01T05:41:53.022Z,6.00
2023-05-01T05:44:20.643Z,6.17
2023-05-01T05:46:47.634Z,5.90
2023-05-01T05:49:14.406Z,5.57
2023-05-01T05:51:41.189Z,5.93
2023-05-01T05:54:07.958Z,6.50
2023-05-01T05:56:34.646Z,6.10
2023-05-01T05:59:03.595Z,6.20
2023-05-01T06:01:30.515Z,5.73
2023-05-01T06:03:57.212Z,6.07
2023-05-01T06:06:24.892Z,5.80
2023-05-01T06:08:51.615Z,6.23
2023-05-01T06:11:18.483Z,6.10
2023-05-01T06:13:45.189Z,6.80
2023-05-01T06:16:12.171Z,6.17
2023-05-01T06:18:39.091Z,6.90
2023-05-01T06:21:05.960Z,6.43
2023-05-01T06:23:36.255Z,5.50
2023-05-01T06:26:02.940Z,6.23
2023-05-01T06:28:29.641Z,5.87
2023-05-01T06:30:56.348Z,6.60
2023-05-01T06:33:22.991Z,6.40
2023-05-01T06:35:52.271Z,5.80
2023-05-01T06:38:18.906Z,6.03
2023-05-01T06:40:47.045Z,5.63
2023-05-01T06:43:13.679Z,6.57
2023-05-01T06:45:42.021Z,7.27
2023-05-01T06:48:08.728Z,6.77
2023-05-01T06:50:35.686Z,6.77
2023-05-01T06:53:03.044Z,6.13
2023-05-01T06:55:33.878Z,6.83
2023-05-01T06:58:04.839Z,6.67
2023-05-01T07:00:39.302Z,6.07
2023-05-01T07:03:06.129Z,7.23
2023-05-01T07:05:32.813Z,6.33
2023-05-01T07:08:01.871Z,7.17
2023-05-01T07:10:30.240Z,7.83
2023-05-01T07:13:02.626Z,6.20
2023-05-01T07:15:29.826Z,5.93
2023-05-01T07:17:56.796Z,6.97
2023-05-01T07:20:23.513Z,6.70
2023-05-01T07:22:50.462Z,6.47
2023-05-01T07:25:17.215Z,7.03
2023-05-01T07:27:43.858Z,6.43
2023-05-01T07:30:11.133Z,7.13
2023-05-01T07:32:37.908Z,6.63
2023-05-01T07:35:05.037Z,6.00
2023-05-01T07:37:31.679Z,6.83
2023-05-01T07:39:58.754Z,7.37
2023-05-01T07:42:27.455Z,6.40
2023-05-01T07:44:54.159Z,6.83
2023-05-01T07:47:20.941Z,7.00
2023-05-01T07:49:47.649Z,7.57
2023-05-01T07:52:15.465Z,6.50
2023-05-01T07:54:42.180Z,7.60
2023-05-01T07:57:08.900Z,7.50
2023-05-01T07:59:35.572Z,7.50
2023-05-01T08:02:02.608Z,7.30
2023-05-01T08:04:29.606Z,8.33
2023-05-01T08:06:56.372Z,8.03
2023-05-01T08:09:23.205Z,7.63
2023-05-01T08:11:49.850Z,8.33
2023-05-01T08:14:19.601Z,7.13
2023-05-01T08:16:46.525Z,7.80
2023-05-01T08:19:15.053Z,6.90
2023-05-01T08:21:41.738Z,8.00
2023-05-01T08:24:10.748Z,7.20
2023-05-01T08:26:37.689Z,7.23
2023-05-01T08:29:04.429Z,6.60
2023-05-01T08:31:31.164Z,6.73
2023-05-01T08:33:57.897Z,7.50
2023-05-01T08:36:24.550Z,8.57
2023-05-01T08:38:51.470Z,7.20
2023-05-01T08:41:22.095Z,7.63
2023-05-01T08:43:49.570Z,8.43
2023-05-01T08:46:25.876Z,7.23
2023-05-01T08:48:57.774Z,8.53
2023-05-01T08:51:25.925Z,7.77
2023-05-01T08:53:54.135Z,7.97
2023-05-01T08:56:27.017Z,7.10
2023-05-01T08:58:54.884Z,7.10
2023-05-01T09:01:23.378Z,7.50
2023-05-01T09:03:52.596Z,7.10
2023-05-01T09:06:20.480Z,6.80
2023-05-01T09:08:47.276Z,6.70
2023-05-01T09:11:13.970Z,6.53
2023-05-01T09:13:40.808Z,6.07
2023-05-01T09:16:08.770Z,6.70
2023-05-01T09:18:35.789Z,6.50
2023-05-01T09:21:03.481Z,5.00
2023-05-01T09:23:30.563Z,5.37
2023-05-01T09:25:58.732Z,5.73
2023-05-01T09:29:01.723Z,4.90
2023-05-01T09:31:30.340Z,5.17
2023-05-01T09:34:04.352Z,5.27
2023-05-01T09:36:33.086Z,4.87
2023-05-01T09:39:04.134Z,5.03
2023-05-01T09:41:33.856Z,5.40
2023-05-01T09:44:01.451Z,5.30
2023-05-01T09:46:28.295Z,5.50
2023-05-01T09:49:00.072Z,5.53
2023-05-01T09:51:27.929Z,6.20
2023-05-01T09:54:02.639Z,5.77
2023-05-01T09:56:31.799Z,5.47
2023-05-01T09:59:14.013Z,5.80
2023-05-01T10:01:42.694Z,6.33
2023-05-01T10:04:10.025Z,5.43
2023-05-01T10:06:37.719Z,5.40
2023-05-01T10:09:07.288Z,5.87
2023-05-01T10:11:57.231Z,5.60
2023-05-01T10:14:25.202Z,5.93
2023-05-01T10:16:55.555Z,6.37
2023-05-01T10:19:22.565Z,5.53
2023-05-01T10:21:49.852Z,5.40
2023-05-01T10:24:19.905Z,6.37
2023-05-01T10:26:49.072Z,6.10
2023-05-01T10:29:16.288Z,5.10
2023-05-01T10:31:43.200Z,5.83
2023-05-01T10:34:16.413Z,5.93
2023-05-01T10:36:48.574Z,5.87
2023-05-01T10:39:36.168Z,6.20
2023-05-01T10:42:14.438Z,6.03
2023-05-01T10:44:42.351Z,5.90
2023-05-01T10:47:34.708Z,5.20
2023-05-01T10:50:09.611Z,5.53
2023-05-01T10:53:11.822Z,5.57
2023-05-01T10:55:43.862Z,5.50
2023-05-01T10:58:34.359Z,5.00
2023-05-01T11:01:34.193Z,5.30
2023-05-01T11:04:28.234Z,5.47
2023-05-01T11:07:10.798Z,5.20
2023-05-01T11:09:40.968Z,4.60
2023-05-01T11:12:09.407Z,5.23
2023-05-01T11:15:08.935Z,4.80
2023-05-01T11:17:41.577Z,5.17
2023-05-01T11:20:10.026Z,5.83
2023-05-01T11:22:38.496Z,6.07
2023-05-01T11:25:18.363Z,5.40
2023-05-01T11:27:53.012Z,6.10
2023-05-01T11:30:20.232Z,5.77
2023-05-01T11:32:48.714Z,5.30
2023-05-01T11:35:24.184Z,5.80
2023-05-01T11:37:55.870Z,5.60
2023-05-01T11:40:30.792Z,6.00
2023-05-01T11:43:01.398Z,5.50
2023-05-01T11:45:28.511Z,5.60
2023-05-01T11:47:56.112Z,5.83
2023-05-01T11:50:22.976Z,5.57
2023-05-01T11:52:53.417Z,5.33
2023-05-01T11:55:21.189Z,5.17
2023-05-01T11:57:53.143Z,5.30
2023-05-01T12:00:33.996Z,6.30
2023-05-01T12:03:03.947Z,4.77
2023-05-01T12:05:31.928Z,4.97
2023-05-01T12:08:15.249Z,5.27
2023-05-01T12:10:43.813Z,4.43
2023-05-01T12:13:12.869Z,5.23
2023-05-01T12:16:03.250Z,5.20
2023-05-01T12:18:30.199Z,4.90
2023-05-01T12:20:57.041Z,5.10
2023-05-01T12:23:35.994Z,4.63
2023-05-01T12:26:15.114Z,5.23
2023-05-01T12:29:00.076Z,5.30
2023-05-01T12:31:27.932Z,6.23
2023-05-01T12:33:56.606Z,4.67
2023-05-01T12:36:28.077Z,4.90
2023-05-01T12:38:57.961Z,5.27
2023-05-01T12:41:44.343Z,5.03
2023-05-01T12:44:20.274Z,5.33
2023-05-01T12:47:01.028Z,5.00
2023-05-01T12:49:29.684Z,5.13
2023-05-01T12:51:59.242Z,4.93
2023-05-01T12:54:30.227Z,5.50
2023-05-01T12:57:17.832Z,6.00
2023-05-01T12:59:46.264Z,6.00
2023-05-01T13:02:15.907Z,6.13
2023-05-01T13:04:44.288Z,5.63
2023-05-01T13:07:12.757Z,5.83
2023-05-01T13:09:39.439Z,5.63
2023-05-01T13:12:08.860Z,5.37
2023-05-01T13:14:38.435Z,5.70
2023-05-01T13:17:12.014Z,5.87
2023-05-01T13:19:39.668Z,5.90
2023-05-01T13:22:06.745Z,5.33
2023-05-01T13:24:41.677Z,5.13
2023-05-01T13:27:09.538Z,5.57
2023-05-01T13:29:36.385Z,5.40
2023-05-01T13:32:09.956Z,5.93
2023-05-01T13:34:37.657Z,5.77
2023-05-01T13:37:04.312Z,5.70
2023-05-01T13:39:31.096Z,5.30
2023-05-01T13:41:57.866Z,5.03
2023-05-01T13:44:24.641Z,5.87
2023-05-01T13:46:51.311Z,6.13
2023-05-01T13:49:22.236Z,6.23
2023-05-01T13:51:49.088Z,7.33
2023-05-01T13:54:17.035Z,6.53
2023-05-01T13:56:43.748Z,7.47
2023-05-01T13:59:10.732Z,7.57
2023-05-01T14:01:46.260Z,8.77
2023-05-01T14:04:18.159Z,7.87
2023-05-01T14:06:48.479Z,8.60
2023-05-01T14:09:19.060Z,8.63
2023-05-01T14:11:48.055Z,7.97
2023-05-01T14:14:16.943Z,8.60
2023-05-01T14:16:51.008Z,9.17
2023-05-01T14:19:20.758Z,10.57
2023-05-01T14:21:47.622Z,9.27
2023-05-01T14:24:17.996Z,9.73
2023-05-01T14:26:47.738Z,9.03
2023-05-01T14:29:22.239Z,10.20
2023-05-01T14:31:49.144Z,11.37
2023-05-01T14:34:18.510Z,10.47
2023-05-01T14:36:45.397Z,9.30
2023-05-01T14:39:13.206Z,8.27
2023-05-01T14:41:42.632Z,7.80
2023-05-01T14:44:18.327Z,7.10
2023-05-01T14:46:51.517Z,11.23
2023-05-01T14:49:24.388Z,10.80
2023-05-01T14:51:52.331Z,10.93
2023-05-01T14:54:20.306Z,12.47
2023-05-01T14:56:48.508Z,12.03
2023-05-01T14:59:19.071Z,12.93
2023-05-01T15:01:46.078Z,10.07
2023-05-01T15:04:13.191Z,11.07
2023-05-01T15:06:39.995Z,9.60
2023-05-01T15:09:06.825Z,9.93
2023-05-01T15:11:33.561Z,9.20
2023-05-01T15:14:00.231Z,9.20
2023-05-01T15:16:27.602Z,11.33
2023-05-01T15:18:54.597Z,11.17
2023-05-01T15:21:21.305Z,10.60
2023-05-01T15:23:48.169Z,13.87
2023-05-01T15:26:14.916Z,12.00
2023-05-01T15:28:41.791Z,11.50
2023-05-01T15:31:08.526Z,10.43
2023-05-01T15:33:35.479Z,9.80
2023-05-01T15:36:02.248Z,11.60
2023-05-01T15:38:29.807Z,9.93
2023-05-01T15:40:56.725Z,11.47
2023-05-01T15:43:23.475Z,9.53
2023-05-01T15:45:51.364Z,10.50
2023-05-01T15:48:18.280Z,10.77
2023-05-01T15:50:47.332Z,10.40
2023-05-01T15:53:16.961Z,10.30
2023-05-01T15:55:43.755Z,8.43
2023-05-01T15:58:10.962Z,7.53
2023-05-01T16:00:39.715Z,5.87
2023-05-01T16:03:07.820Z,6.57
2023-05-01T16:05:36.958Z,4.70
2023-05-01T16:08:06.421Z,4.43
2023-05-01T16:10:37.380Z,4.30
2023-05-01T16:13:06.305Z,4.60
2023-05-01T16:15:33.987Z,5.00
2023-05-01T16:18:03.974Z,5.03
2023-05-01T16:20:35.909Z,4.57
2023-05-01T16:23:02.769Z,5.20
2023-05-01T16:25:29.498Z,5.23
2023-05-01T16:27:56.237Z,4.60
2023-05-01T16:30:27.528Z,4.80
2023-05-01T16:32:54.385Z,5.07
2023-05-01T16:35:27.406Z,5.40
2023-05-01T16:37:55.409Z,4.67
2023-05-01T16:40:23.054Z,6.97
2023-05-01T16:42:54.146Z,9.83
2023-05-01T16:45:21.740Z,27.73
2023-05-01T16:47:48.619Z,59.77
2023-05-01T16:50:16.492Z,50.97
2023-05-01T16:52:43.308Z,42.60
2023-05-01T16:55:10.210Z,39.17
2023-05-01T16:57:37.038Z,33.63
2023-05-01T17:00:05.229Z,32.13
2023-05-01T17:02:33.404Z,29.33
2023-05-01T17:05:00.302Z,28.90
2023-05-01T17:07:27.223Z,20.30
2023-05-01T17:09:54.292Z,17.43
2023-05-01T17:12:21.121Z,12.63
2023-05-01T17:14:47.778Z,20.37
2023-05-01T17:17:15.469Z,33.83
2023-05-01T17:19:42.252Z,35.97
2023-05-01T17:22:09.160Z,30.47
2023-05-01T17:24:36.617Z,18.87
2023-05-01T17:27:03.632Z,11.20
2023-05-01T17:29:30.649Z,7.87
2023-05-01T17:31:57.726Z,8.37
2023-05-01T17:34:24.535Z,7.33
2023-05-01T17:36:51.236Z,7.67
2023-05-01T17:39:18.546Z,9.03
2023-05-01T17:41:45.383Z,8.93
2023-05-01T17:44:12.065Z,7.80
2023-05-01T17:46:39.412Z,8.50
2023-05-01T17:49:07.439Z,9.40
2023-05-01T17:51:34.234Z,8.47
2023-05-01T17:54:01.532Z,8.63
2023-05-01T17:56:28.470Z,7.50
2023-05-01T17:58:55.276Z,7.60
2023-05-01T18:01:22.374Z,7.60
2023-05-01T18:03:49.529Z,7.00
2023-05-01T18:06:16.906Z,7.00
2023-05-01T18:08:43.689Z,5.63
2023-05-01T18:11:10.495Z,5.70
2023-05-01T18:13:42.431Z,5.60
2023-05-01T18:16:11.156Z,5.00
2023-05-01T18:18:38.025Z,5.83
2023-05-01T18:21:04.957Z,6.50
2023-05-01T18:23:31.717Z,5.57
2023-05-01T18:25:59.215Z,6.70
2023-05-01T18:28:26.716Z,5.00
2023-05-01T18:30:53.498Z,5.40
2023-05-01T18:33:21.452Z,5.17
2023-05-01T18:35:48.327Z,5.60
2023-05-01T18:38:15.091Z,5.40
2023-05-01T18:40:41.792Z,7.10
2023-05-01T18:43:08.609Z,4.83
2023-05-01T18:45:35.478Z,5.77
2023-05-01T18:48:03.117Z,5.47
2023-05-01T18:50:30.226Z,6.67
2023-05-01T18:52:57.008Z,5.93
2023-05-01T18:55:23.883Z,5.93
2023-05-01T18:57:50.986Z,5.53
2023-05-01T19:00:18.090Z,7.00
2023-05-01T19:02:51.427Z,5.80
2023-05-01T19:05:19.199Z,5.80
2023-05-01T19:07:46.537Z,5.63
2023-05-01T19:10:13.469Z,5.37
2023-05-01T19:12:41.223Z,6.10
2023-05-01T19:15:08.835Z,6.40
2023-05-01T19:17:35.598Z,5.00
2023-05-01T19:20:04.556Z,5.03
2023-05-01T19:22:31.530Z,6.17
2023-05-01T19:25:00.136Z,6.60
2023-05-01T19:27:27.284Z,5.27
2023-05-01T19:29:54.618Z,6.57
2023-05-01T19:32:21.590Z,5.70
2023-05-01T19:34:48.599Z,5.17
2023-05-01T19:37:15.832Z,4.63
2023-05-01T19:39:42.794Z,5.20
2023-05-01T19:42:09.518Z,4.07
2023-05-01T19:44:36.328Z,3.77
2023-05-01T19:47:03.186Z,3.90
2023-05-01T19:49:30.780Z,3.57
2023-05-01T19:51:57.701Z,4.40
2023-05-01T19:54:28.646Z,3.67
2023-05-01T19:56:56.140Z,3.50
2023-05-01T19:59:23.270Z,3.63
2023-05-01T20:01:51.736Z,3.90
2023-05-01T20:04:19.419Z,3.50
2023-05-01T20:06:46.883Z,3.70
2023-05-01T20:09:13.787Z,3.20
2023-05-01T20:11:41.057Z,3.47
2023-05-01T20:14:07.981Z,3.47
2023-05-01T20:16:35.823Z,3.50
2023-05-01T20:19:02.691Z,3.67
2023-05-01T20:21:29.623Z,3.00
2023-05-01T20:23:57.632Z,3.40
2023-05-01T20:26:24.833Z,3.17
2023-05-01T20:28:52.283Z,3.00
2023-05-01T20:31:19.067Z,3.33
2023-05-01T20:33:46.040Z,3.70
2023-05-01T20:36:14.010Z,4.70
2023-05-01T20:38:43.062Z,3.53
2023-05-01T20:41:10.032Z,3.40
2023-05-01T20:43:37.003Z,3.60
2023-05-01T20:46:03.914Z,4.10
2023-05-01T20:48:31.711Z,3.77
2023-05-01T20:50:58.527Z,3.63
2023-05-01T20:53:25.381Z,3.13
2023-05-01T20:55:52.259Z,3.60
2023-05-01T20:58:19.084Z,3.40
2023-05-01T21:00:45.829Z,3.70
2023-05-01T21:03:14.496Z,3.63
2023-05-01T21:05:41.396Z,3.57
2023-05-01T21:08:08.209Z,3.47
2023-05-01T21:10:35.930Z,3.00
2023-05-01T21:13:02.950Z,3.63
2023-05-01T21:15:31.748Z,4.07
2023-05-01T21:17:58.696Z,4.10
2023-05-01T21:20:32.315Z,4.50
2023-05-01T21:23:02.525Z,4.27
2023-05-01T21:25:31.608Z,4.97
2023-05-01T21:28:02.092Z,4.40
2023-05-01T21:30:31.153Z,4.50
2023-05-01T21:32:58.441Z,4.83
2023-05-01T21:35:26.508Z,5.00
2023-05-01T21:37:53.226Z,4.17
2023-05-01T21:40:20.275Z,6.00
2023-05-01T21:42:46.999Z,4.90
2023-05-01T21:45:17.017Z,4.40
2023-05-01T21:47:47.787Z,3.47
2023-05-01T21:50:17.507Z,3.77
2023-05-01T21:52:46.046Z,3.87
2023-05-01T21:55:21.595Z,3.67
2023-05-01T21:57:49.980Z,3.53
2023-05-01T22:00:18.100Z,4.07
2023-05-01T22:02:49.652Z,3.90
2023-05-01T22:05:18.800Z,3.70
2023-05-01T22:07:47.039Z,4.07
2023-05-01T22:10:15.884Z,3.47
2023-05-01T22:12:43.822Z,3.47
2023-05-01T22:15:11.883Z,3.90
2023-05-01T22:17:39.604Z,3.53
2023-05-01T22:20:07.421Z,3.57
2023-05-01T22:22:35.290Z,3.67
2023-05-01T22:25:02.448Z,3.57
2023-05-01T22:27:29.655Z,3.50
2023-05-01T22:29:56.538Z,3.40
2023-05-01T22:32:23.425Z,3.77
2023-05-01T22:34:50.310Z,3.50
2023-05-01T22:37:18.138Z,3.53
2023-05-01T22:39:44.893Z,3.53
2023-05-01T22:42:11.571Z,3.73
2023-05-01T22:44:38.294Z,3.00
2023-05-01T22:47:04.885Z,3.20
2023-05-01T22:49:32.667Z,3.43
2023-05-01T22:51:59.752Z,4.23
2023-05-01T22:54:26.532Z,3.20
2023-05-01T22:56:53.180Z,3.47
2023-05-01T22:59:21.423Z,3.97
2023-05-01T23:01:48.370Z,3.90
2023-05-01T23:04:15.465Z,3.50
2023-05-01T23:06:43.157Z,3.23
2023-05-01T23:09:10.247Z,3.77
2023-05-01T23:11:38.545Z,4.10
2023-05-01T23:14:05.224Z,4.27
2023-05-01T23:16:39.539Z,4.43
2023-05-01T23:19:09.460Z,6.13
2023-05-01T23:21:36.119Z,5.57
2023-05-01T23:24:03.137Z,6.20
2023-05-01T23:26:29.852Z,4.90
2023-05-01T23:28:56.570Z,4.67
2023-05-01T23:31:29.110Z,3.40
2023-05-01T23:33:55.847Z,2.90
2023-05-01T23:36:22.701Z,2.60
2023-05-01T23:38:49.575Z,2.90
2023-05-01T23:41:16.552Z,3.43
2023-05-01T23:43:47.825Z,3.47
2023-05-01T23:46:14.598Z,3.60
2023-05-01T23:48:41.612Z,3.13
2023-05-01T23:51:08.815Z,2.90
2023-05-01T23:53:35.458Z,2.90
2023-05-01T23:56:02.182Z,3.10
2023-05-01T23:58:28.837Z,3.13
